sensor_id;sensor_type;location;lat;lon;timestamp;P1;durP1;ratioP1;P2;durP2;ratioP2
53781;SDS011;39692;53.114;7.060;2022-08-19T00:00:17;5.00;;;4.20;;
53781;SDS011;39692;53.114;7.060;2022-08-19T00:02:44;4.95;;;3.95;;
53781;SDS011;39692;53.114;7.060;2022-08-19T00:05:10;7.28;;;3.78;;
53781;SDS011;39692;53.114;7.060;2022-08-19T00:07:37;4.70;;;2.83;;
53781;SDS011;39692;53.114;7.060;2022-08-19T00:10:04;7.95;;;5.20;;
53781;SDS011;39692;53.114;7.060;2022-08-19T00:12:32;2.17;;;0.80;;
53781;SDS011;39692;53.114;7.060;2022-08-19T00:14:58;3.20;;;2.15;;
53781;SDS011;39692;53.114;7.060;2022-08-19T00:17:24;5.40;;;4.35;;
53781;SDS011;39692;53.114;7.060;2022-08-19T00:19:50;4.93;;;2.95;;
53781;SDS011;39692;53.114;7.060;2022-08-19T00:22:16;2.95;;;2.13;;
53781;SDS011;39692;53.114;7.060;2022-08-19T00:24:43;4.78;;;3.05;;
53781;SDS011;39692;53.114;7.060;2022-08-19T00:27:10;5.30;;;2.90;;
53781;SDS011;39692;53.114;7.060;2022-08-19T00:29:37;3.83;;;1.88;;
53781;SDS011;39692;53.114;7.060;2022-08-19T00:32:03;3.40;;;2.20;;
53781;SDS011;39692;53.114;7.060;2022-08-19T00:34:29;3.88;;;2.50;;
53781;SDS011;39692;53.114;7.060;2022-08-19T00:36:55;4.88;;;2.47;;
53781;SDS011;39692;53.114;7.060;2022-08-19T00:39:21;4.75;;;2.90;;
53781;SDS011;39692;53.114;7.060;2022-08-19T00:41:48;5.82;;;3.33;;
53781;SDS011;39692;53.114;7.060;2022-08-19T00:44:16;4.25;;;3.03;;
53781;SDS011;39692;53.114;7.060;2022-08-19T00:46:44;4.70;;;3.50;;
53781;SDS011;39692;53.114;7.060;2022-08-19T00:49:14;4.82;;;2.70;;
53781;SDS011;39692;53.114;7.060;2022-08-19T00:51:42;4.40;;;1.70;;
53781;SDS011;39692;53.114;7.060;2022-08-19T00:54:09;2.22;;;1.17;;
53781;SDS011;39692;53.114;7.060;2022-08-19T00:56:35;3.90;;;1.58;;
53781;SDS011;39692;53.114;7.060;2022-08-19T00:59:01;4.10;;;1.80;;
53781;SDS011;39692;53.114;7.060;2022-08-19T01:01:27;4.57;;;1.85;;
53781;SDS011;39692;53.114;7.060;2022-08-19T01:03:54;5.00;;;2.67;;
53781;SDS011;39692;53.114;7.060;2022-08-19T01:06:20;3.50;;;2.38;;
53781;SDS011;39692;53.114;7.060;2022-08-19T01:08:46;3.95;;;1.52;;
53781;SDS011;39692;53.114;7.060;2022-08-19T01:11:12;2.22;;;1.10;;
53781;SDS011;39692;53.114;7.060;2022-08-19T01:13:38;2.90;;;1.88;;
53781;SDS011;39692;53.114;7.060;2022-08-19T01:16:06;2.47;;;1.33;;
53781;SDS011;39692;53.114;7.060;2022-08-19T01:18:38;2.13;;;1.10;;
53781;SDS011;39692;53.114;7.060;2022-08-19T01:21:11;4.45;;;3.35;;
53781;SDS011;39692;53.114;7.060;2022-08-19T01:23:43;3.08;;;1.48;;
53781;SDS011;39692;53.114;7.060;2022-08-19T01:26:12;2.20;;;1.20;;
53781;SDS011;39692;53.114;7.060;2022-08-19T01:28:39;2.67;;;1.20;;
53781;SDS011;39692;53.114;7.060;2022-08-19T01:31:07;1.48;;;0.88;;
53781;SDS011;39692;53.114;7.060;2022-08-19T01:33:36;1.88;;;0.80;;
53781;SDS011;39692;53.114;7.060;2022-08-19T01:36:10;14.63;;;2.30;;
53781;SDS011;39692;53.114;7.060;2022-08-19T01:38:38;57.22;;;7.05;;
53781;SDS011;39692;53.114;7.060;2022-08-19T01:41:06;18.48;;;4.00;;
53781;SDS011;39692;53.114;7.060;2022-08-19T01:43:32;12.48;;;3.60;;
53781;SDS011;39692;53.114;7.060;2022-08-19T01:45:58;16.88;;;3.35;;
53781;SDS011;39692;53.114;7.060;2022-08-19T01:48:24;5.10;;;2.00;;
53781;SDS011;39692;53.114;7.060;2022-08-19T01:50:49;5.82;;;1.92;;
53781;SDS011;39692;53.114;7.060;2022-08-19T01:53:15;12.80;;;2.70;;
53781;SDS011;39692;53.114;7.060;2022-08-19T01:55:42;45.88;;;5.50;;
53781;SDS011;39692;53.114;7.060;2022-08-19T01:58:10;3.00;;;2.08;;
53781;SDS011;39692;53.114;7.060;2022-08-19T02:00:44;4.07;;;3.10;;
53781;SDS011;39692;53.114;7.060;2022-08-19T02:03:10;5.88;;;3.83;;
53781;SDS011;39692;53.114;7.060;2022-08-19T02:05:37;5.27;;;2.93;;
53781;SDS011;39692;53.114;7.060;2022-08-19T02:08:04;19.67;;;4.90;;
53781;SDS011;39692;53.114;7.060;2022-08-19T02:10:30;7.57;;;5.00;;
53781;SDS011;39692;53.114;7.060;2022-08-19T02:12:56;7.53;;;5.57;;
53781;SDS011;39692;53.114;7.060;2022-08-19T02:15:22;9.32;;;5.78;;
53781;SDS011;39692;53.114;7.060;2022-08-19T02:17:49;6.85;;;4.63;;
53781;SDS011;39692;53.114;7.060;2022-08-19T02:20:15;10.00;;;4.57;;
53781;SDS011;39692;53.114;7.060;2022-08-19T02:22:41;8.88;;;5.15;;
53781;SDS011;39692;53.114;7.060;2022-08-19T02:25:11;6.68;;;4.07;;
53781;SDS011;39692;53.114;7.060;2022-08-19T02:27:38;22.15;;;4.40;;
53781;SDS011;39692;53.114;7.060;2022-08-19T02:30:05;11.85;;;3.75;;
53781;SDS011;39692;53.114;7.060;2022-08-19T02:32:32;13.93;;;3.53;;
53781;SDS011;39692;53.114;7.060;2022-08-19T02:34:58;22.67;;;4.93;;
53781;SDS011;39692;53.114;7.060;2022-08-19T02:37:24;7.30;;;4.78;;
53781;SDS011;39692;53.114;7.060;2022-08-19T02:40:08;9.18;;;5.65;;
53781;SDS011;39692;53.114;7.060;2022-08-19T02:42:34;15.88;;;6.55;;
53781;SDS011;39692;53.114;7.060;2022-08-19T02:45:00;7.88;;;5.93;;
53781;SDS011;39692;53.114;7.060;2022-08-19T02:47:26;24.27;;;8.00;;
53781;SDS011;39692;53.114;7.060;2022-08-19T02:49:51;21.92;;;7.18;;
53781;SDS011;39692;53.114;7.060;2022-08-19T02:52:17;47.28;;;7.93;;
53781;SDS011;39692;53.114;7.060;2022-08-19T02:54:43;37.63;;;5.80;;
53781;SDS011;39692;53.114;7.060;2022-08-19T02:57:09;12.05;;;4.22;;
53781;SDS011;39692;53.114;7.060;2022-08-19T02:59:35;14.20;;;6.40;;
53781;SDS011;39692;53.114;7.060;2022-08-19T03:02:00;8.52;;;4.95;;
53781;SDS011;39692;53.114;7.060;2022-08-19T03:04:26;20.10;;;5.55;;
53781;SDS011;39692;53.114;7.060;2022-08-19T03:06:52;17.05;;;5.85;;
53781;SDS011;39692;53.114;7.060;2022-08-19T03:09:19;23.50;;;7.05;;
53781;SDS011;39692;53.114;7.060;2022-08-19T03:11:45;45.03;;;9.40;;
53781;SDS011;39692;53.114;7.060;2022-08-19T03:14:11;43.85;;;8.90;;
53781;SDS011;39692;53.114;7.060;2022-08-19T03:16:45;40.20;;;9.05;;
53781;SDS011;39692;53.114;7.060;2022-08-19T03:19:13;55.53;;;8.43;;
53781;SDS011;39692;53.114;7.060;2022-08-19T03:21:41;44.70;;;7.13;;
53781;SDS011;39692;53.114;7.060;2022-08-19T03:24:10;40.65;;;5.85;;
53781;SDS011;39692;53.114;7.060;2022-08-19T03:26:44;43.63;;;6.60;;
53781;SDS011;39692;53.114;7.060;2022-08-19T03:29:11;31.00;;;6.60;;
53781;SDS011;39692;53.114;7.060;2022-08-19T03:31:39;32.33;;;6.80;;
53781;SDS011;39692;53.114;7.060;2022-08-19T03:34:06;56.22;;;8.02;;
53781;SDS011;39692;53.114;7.060;2022-08-19T03:36:31;68.63;;;9.38;;
53781;SDS011;39692;53.114;7.060;2022-08-19T03:38:58;59.13;;;7.68;;
53781;SDS011;39692;53.114;7.060;2022-08-19T03:41:26;25.35;;;5.10;;
53781;SDS011;39692;53.114;7.060;2022-08-19T03:43:55;68.45;;;9.32;;
53781;SDS011;39692;53.114;7.060;2022-08-19T03:46:26;27.42;;;6.50;;
53781;SDS011;39692;53.114;7.060;2022-08-19T03:48:54;26.00;;;6.88;;
53781;SDS011;39692;53.114;7.060;2022-08-19T03:51:26;18.08;;;6.20;;
53781;SDS011;39692;53.114;7.060;2022-08-19T03:53:56;29.77;;;7.60;;
53781;SDS011;39692;53.114;7.060;2022-08-19T03:56:24;42.67;;;9.52;;
53781;SDS011;39692;53.114;7.060;2022-08-19T03:58:51;52.83;;;8.70;;
53781;SDS011;39692;53.114;7.060;2022-08-19T04:01:18;71.97;;;11.02;;
53781;SDS011;39692;53.114;7.060;2022-08-19T04:03:46;112.93;;;12.85;;
53781;SDS011;39692;53.114;7.060;2022-08-19T04:06:14;128.52;;;13.75;;
53781;SDS011;39692;53.114;7.060;2022-08-19T04:08:52;78.72;;;10.57;;
53781;SDS011;39692;53.114;7.060;2022-08-19T04:11:20;53.97;;;6.95;;
53781;SDS011;39692;53.114;7.060;2022-08-19T04:13:48;41.70;;;6.20;;
53781;SDS011;39692;53.114;7.060;2022-08-19T04:16:16;31.42;;;6.13;;
53781;SDS011;39692;53.114;7.060;2022-08-19T04:18:43;9.98;;;4.55;;
53781;SDS011;39692;53.114;7.060;2022-08-19T04:21:14;37.92;;;5.55;;
53781;SDS011;39692;53.114;7.060;2022-08-19T04:23:45;12.27;;;4.63;;
53781;SDS011;39692;53.114;7.060;2022-08-19T04:26:12;21.67;;;5.20;;
53781;SDS011;39692;53.114;7.060;2022-08-19T04:28:39;48.53;;;6.80;;
53781;SDS011;39692;53.114;7.060;2022-08-19T04:31:05;13.75;;;5.50;;
53781;SDS011;39692;53.114;7.060;2022-08-19T04:33:32;8.70;;;5.15;;
53781;SDS011;39692;53.114;7.060;2022-08-19T04:35:58;10.30;;;5.65;;
53781;SDS011;39692;53.114;7.060;2022-08-19T04:38:24;12.93;;;5.82;;
53781;SDS011;39692;53.114;7.060;2022-08-19T04:40:50;37.15;;;8.23;;
53781;SDS011;39692;53.114;7.060;2022-08-19T04:43:36;7.25;;;5.40;;
53781;SDS011;39692;53.114;7.060;2022-08-19T04:46:09;12.07;;;5.97;;
53781;SDS011;39692;53.114;7.060;2022-08-19T04:48:37;10.55;;;6.10;;
53781;SDS011;39692;53.114;7.060;2022-08-19T04:51:08;19.88;;;6.32;;
53781;SDS011;39692;53.114;7.060;2022-08-19T04:53:37;6.30;;;5.00;;
53781;SDS011;39692;53.114;7.060;2022-08-19T04:56:08;6.65;;;5.32;;
53781;SDS011;39692;53.114;7.060;2022-08-19T04:58:37;6.20;;;4.82;;
53781;SDS011;39692;53.114;7.060;2022-08-19T05:01:05;7.53;;;4.70;;
53781;SDS011;39692;53.114;7.060;2022-08-19T05:03:30;7.60;;;4.80;;
53781;SDS011;39692;53.114;7.060;2022-08-19T05:05:58;6.85;;;5.05;;
53781;SDS011;39692;53.114;7.060;2022-08-19T05:08:32;6.97;;;5.10;;
53781;SDS011;39692;53.114;7.060;2022-08-19T05:11:00;11.80;;;4.50;;
53781;SDS011;39692;53.114;7.060;2022-08-19T05:13:36;7.47;;;4.38;;
53781;SDS011;39692;53.114;7.060;2022-08-19T05:16:02;10.00;;;5.10;;
53781;SDS011;39692;53.114;7.060;2022-08-19T05:18:28;30.85;;;6.00;;
53781;SDS011;39692;53.114;7.060;2022-08-19T05:21:14;6.07;;;4.40;;
53781;SDS011;39692;53.114;7.060;2022-08-19T05:24:00;6.32;;;4.45;;
53781;SDS011;39692;53.114;7.060;2022-08-19T05:26:27;5.40;;;4.75;;
53781;SDS011;39692;53.114;7.060;2022-08-19T05:28:53;7.65;;;6.05;;
53781;SDS011;39692;53.114;7.060;2022-08-19T05:31:19;8.45;;;6.55;;
53781;SDS011;39692;53.114;7.060;2022-08-19T05:33:45;7.13;;;5.95;;
53781;SDS011;39692;53.114;7.060;2022-08-19T05:36:11;6.40;;;5.47;;
53781;SDS011;39692;53.114;7.060;2022-08-19T05:38:38;7.03;;;5.30;;
53781;SDS011;39692;53.114;7.060;2022-08-19T05:41:11;11.50;;;6.97;;
53781;SDS011;39692;53.114;7.060;2022-08-19T05:43:42;35.63;;;7.90;;
53781;SDS011;39692;53.114;7.060;2022-08-19T05:46:07;30.38;;;8.65;;
53781;SDS011;39692;53.114;7.060;2022-08-19T05:48:40;35.22;;;7.72;;
53781;SDS011;39692;53.114;7.060;2022-08-19T05:51:06;107.30;;;10.27;;
53781;SDS011;39692;53.114;7.060;2022-08-19T05:53:33;32.92;;;7.70;;
53781;SDS011;39692;53.114;7.060;2022-08-19T05:56:08;16.88;;;7.05;;
53781;SDS011;39692;53.114;7.060;2022-08-19T05:58:36;13.25;;;6.13;;
53781;SDS011;39692;53.114;7.060;2022-08-19T06:01:13;20.98;;;6.30;;
53781;SDS011;39692;53.114;7.060;2022-08-19T06:03:40;14.13;;;6.30;;
53781;SDS011;39692;53.114;7.060;2022-08-19T06:06:07;7.05;;;5.90;;
53781;SDS011;39692;53.114;7.060;2022-08-19T06:08:34;8.45;;;6.00;;
53781;SDS011;39692;53.114;7.060;2022-08-19T06:14:11;7.63;;;6.50;;
53781;SDS011;39692;53.114;7.060;2022-08-19T06:16:40;8.00;;;7.03;;
53781;SDS011;39692;53.114;7.060;2022-08-19T06:19:11;9.07;;;6.97;;
53781;SDS011;39692;53.114;7.060;2022-08-19T06:21:40;9.77;;;8.07;;
53781;SDS011;39692;53.114;7.060;2022-08-19T06:24:08;9.32;;;7.65;;
53781;SDS011;39692;53.114;7.060;2022-08-19T06:26:36;8.45;;;7.05;;
53781;SDS011;39692;53.114;7.060;2022-08-19T06:29:05;7.38;;;6.32;;
53781;SDS011;39692;53.114;7.060;2022-08-19T06:31:31;7.05;;;6.25;;
53781;SDS011;39692;53.114;7.060;2022-08-19T06:33:59;8.88;;;7.25;;
53781;SDS011;39692;53.114;7.060;2022-08-19T06:36:29;9.65;;;8.32;;
53781;SDS011;39692;53.114;7.060;2022-08-19T06:39:01;9.48;;;8.40;;
53781;SDS011;39692;53.114;7.060;2022-08-19T06:41:29;9.07;;;8.07;;
53781;SDS011;39692;53.114;7.060;2022-08-19T06:43:55;10.85;;;8.40;;
53781;SDS011;39692;53.114;7.060;2022-08-19T06:46:22;10.05;;;9.05;;
53781;SDS011;39692;53.114;7.060;2022-08-19T06:48:48;10.50;;;8.90;;
53781;SDS011;39692;53.114;7.060;2022-08-19T06:51:15;12.88;;;10.38;;
53781;SDS011;39692;53.114;7.060;2022-08-19T06:53:44;11.75;;;10.05;;
53781;SDS011;39692;53.114;7.060;2022-08-19T06:56:16;13.13;;;10.82;;
53781;SDS011;39692;53.114;7.060;2022-08-19T06:58:42;13.07;;;9.70;;
53781;SDS011;39692;53.114;7.060;2022-08-19T07:01:09;10.25;;;9.15;;
53781;SDS011;39692;53.114;7.060;2022-08-19T07:03:37;11.10;;;9.75;;
53781;SDS011;39692;53.114;7.060;2022-08-19T07:06:08;11.15;;;9.02;;
53781;SDS011;39692;53.114;7.060;2022-08-19T07:08:35;12.88;;;9.80;;
53781;SDS011;39692;53.114;7.060;2022-08-19T07:11:05;14.23;;;10.48;;
53781;SDS011;39692;53.114;7.060;2022-08-19T07:13:32;12.38;;;9.90;;
53781;SDS011;39692;53.114;7.060;2022-08-19T07:16:02;12.55;;;10.50;;
53781;SDS011;39692;53.114;7.060;2022-08-19T07:18:29;10.45;;;9.18;;
53781;SDS011;39692;53.114;7.060;2022-08-19T07:21:09;12.80;;;11.00;;
53781;SDS011;39692;53.114;7.060;2022-08-19T07:23:35;13.70;;;10.18;;
53781;SDS011;39692;53.114;7.060;2022-08-19T07:26:06;12.57;;;10.32;;
53781;SDS011;39692;53.114;7.060;2022-08-19T07:28:32;11.73;;;9.45;;
53781;SDS011;39692;53.114;7.060;2022-08-19T07:30:58;13.23;;;10.05;;
53781;SDS011;39692;53.114;7.060;2022-08-19T07:33:23;11.20;;;10.07;;
53781;SDS011;39692;53.114;7.060;2022-08-19T07:35:51;12.37;;;10.13;;
53781;SDS011;39692;53.114;7.060;2022-08-19T07:38:17;11.10;;;10.00;;
53781;SDS011;39692;53.114;7.060;2022-08-19T07:40:43;12.40;;;10.00;;
53781;SDS011;39692;53.114;7.060;2022-08-19T07:43:11;12.98;;;9.90;;
53781;SDS011;39692;53.114;7.060;2022-08-19T07:45:37;13.40;;;11.48;;
53781;SDS011;39692;53.114;7.060;2022-08-19T07:48:02;11.45;;;10.02;;
53781;SDS011;39692;53.114;7.060;2022-08-19T07:50:29;13.63;;;11.18;;
53781;SDS011;39692;53.114;7.060;2022-08-19T07:52:55;10.98;;;9.57;;
53781;SDS011;39692;53.114;7.060;2022-08-19T07:55:22;11.23;;;8.90;;
53781;SDS011;39692;53.114;7.060;2022-08-19T07:57:48;11.05;;;9.10;;
53781;SDS011;39692;53.114;7.060;2022-08-19T08:00:17;11.55;;;9.50;;
53781;SDS011;39692;53.114;7.060;2022-08-19T08:02:43;12.13;;;9.30;;
53781;SDS011;39692;53.114;7.060;2022-08-19T08:05:10;13.30;;;10.35;;
53781;SDS011;39692;53.114;7.060;2022-08-19T08:07:54;9.32;;;8.30;;
53781;SDS011;39692;53.114;7.060;2022-08-19T08:10:39;10.52;;;8.90;;
53781;SDS011;39692;53.114;7.060;2022-08-19T08:13:06;10.90;;;8.75;;
53781;SDS011;39692;53.114;7.060;2022-08-19T08:15:32;10.93;;;9.55;;
53781;SDS011;39692;53.114;7.060;2022-08-19T08:17:58;11.13;;;8.60;;
53781;SDS011;39692;53.114;7.060;2022-08-19T08:20:24;10.73;;;8.88;;
53781;SDS011;39692;53.114;7.060;2022-08-19T08:22:50;8.70;;;7.80;;
53781;SDS011;39692;53.114;7.060;2022-08-19T08:25:35;11.10;;;8.75;;
53781;SDS011;39692;53.114;7.060;2022-08-19T08:28:02;8.90;;;7.90;;
53781;SDS011;39692;53.114;7.060;2022-08-19T08:30:29;10.05;;;8.43;;
53781;SDS011;39692;53.114;7.060;2022-08-19T08:32:57;9.07;;;8.18;;
53781;SDS011;39692;53.114;7.060;2022-08-19T08:35:24;10.30;;;8.07;;
53781;SDS011;39692;53.114;7.060;2022-08-19T08:37:51;8.82;;;7.45;;
53781;SDS011;39692;53.114;7.060;2022-08-19T08:40:21;7.65;;;6.85;;
53781;SDS011;39692;53.114;7.060;2022-08-19T08:45:41;8.00;;;7.20;;
53781;SDS011;39692;53.114;7.060;2022-08-19T08:50:45;8.65;;;7.82;;
53781;SDS011;39692;53.114;7.060;2022-08-19T08:53:16;8.70;;;7.40;;
53781;SDS011;39692;53.114;7.060;2022-08-19T08:55:43;7.00;;;6.30;;
53781;SDS011;39692;53.114;7.060;2022-08-19T08:58:31;10.98;;;8.45;;
53781;SDS011;39692;53.114;7.060;2022-08-19T09:01:08;9.52;;;7.43;;
53781;SDS011;39692;53.114;7.060;2022-08-19T09:03:36;10.00;;;7.72;;
53781;SDS011;39692;53.114;7.060;2022-08-19T09:06:06;7.85;;;7.05;;
53781;SDS011;39692;53.114;7.060;2022-08-19T09:14:17;8.07;;;7.28;;
53781;SDS011;39692;53.114;7.060;2022-08-19T09:16:45;7.93;;;6.50;;
53781;SDS011;39692;53.114;7.060;2022-08-19T09:19:11;7.40;;;6.50;;
53781;SDS011;39692;53.114;7.060;2022-08-19T09:21:37;7.53;;;5.78;;
53781;SDS011;39692;53.114;7.060;2022-08-19T09:24:03;7.60;;;6.47;;
53781;SDS011;39692;53.114;7.060;2022-08-19T09:26:30;7.35;;;6.57;;
53781;SDS011;39692;53.114;7.060;2022-08-19T09:28:57;7.22;;;6.25;;
53781;SDS011;39692;53.114;7.060;2022-08-19T09:31:25;7.28;;;5.95;;
53781;SDS011;39692;53.114;7.060;2022-08-19T09:33:52;5.43;;;4.88;;
53781;SDS011;39692;53.114;7.060;2022-08-19T09:36:22;6.72;;;5.20;;
53781;SDS011;39692;53.114;7.060;2022-08-19T09:38:50;6.82;;;5.78;;
53781;SDS011;39692;53.114;7.060;2022-08-19T09:41:18;8.00;;;4.70;;
53781;SDS011;39692;53.114;7.060;2022-08-19T09:43:46;5.78;;;5.05;;
53781;SDS011;39692;53.114;7.060;2022-08-19T09:46:14;6.07;;;5.05;;
53781;SDS011;39692;53.114;7.060;2022-08-19T09:48:41;5.90;;;5.28;;
53781;SDS011;39692;53.114;7.060;2022-08-19T09:51:10;6.88;;;5.32;;
53781;SDS011;39692;53.114;7.060;2022-08-19T09:53:41;5.93;;;4.93;;
53781;SDS011;39692;53.114;7.060;2022-08-19T09:56:07;6.30;;;5.18;;
53781;SDS011;39692;53.114;7.060;2022-08-19T09:58:33;7.38;;;4.85;;
53781;SDS011;39692;53.114;7.060;2022-08-19T10:01:00;7.03;;;5.65;;
53781;SDS011;39692;53.114;7.060;2022-08-19T10:03:27;4.43;;;3.92;;
53781;SDS011;39692;53.114;7.060;2022-08-19T10:05:54;6.13;;;4.57;;
53781;SDS011;39692;53.114;7.060;2022-08-19T10:08:26;6.32;;;4.95;;
53781;SDS011;39692;53.114;7.060;2022-08-19T10:10:54;6.90;;;5.00;;
53781;SDS011;39692;53.114;7.060;2022-08-19T10:13:21;6.15;;;5.13;;
53781;SDS011;39692;53.114;7.060;2022-08-19T10:15:48;6.25;;;4.78;;
53781;SDS011;39692;53.114;7.060;2022-08-19T10:18:18;7.60;;;5.40;;
53781;SDS011;39692;53.114;7.060;2022-08-19T10:20:46;8.05;;;5.28;;
53781;SDS011;39692;53.114;7.060;2022-08-19T10:23:13;5.55;;;3.75;;
53781;SDS011;39692;53.114;7.060;2022-08-19T10:25:40;5.40;;;4.30;;
53781;SDS011;39692;53.114;7.060;2022-08-19T10:28:06;4.50;;;4.00;;
53781;SDS011;39692;53.114;7.060;2022-08-19T10:30:32;5.85;;;4.65;;
53781;SDS011;39692;53.114;7.060;2022-08-19T10:33:00;5.10;;;4.03;;
53781;SDS011;39692;53.114;7.060;2022-08-19T10:35:26;5.10;;;3.80;;
53781;SDS011;39692;53.114;7.060;2022-08-19T10:37:54;4.28;;;3.10;;
53781;SDS011;39692;53.114;7.060;2022-08-19T10:40:27;5.13;;;2.83;;
53781;SDS011;39692;53.114;7.060;2022-08-19T10:42:54;5.00;;;2.60;;
53781;SDS011;39692;53.114;7.060;2022-08-19T10:45:23;3.38;;;2.80;;
53781;SDS011;39692;53.114;7.060;2022-08-19T10:47:51;3.70;;;2.90;;
53781;SDS011;39692;53.114;7.060;2022-08-19T10:50:18;4.75;;;3.40;;
53781;SDS011;39692;53.114;7.060;2022-08-19T10:53:05;4.50;;;3.10;;
53781;SDS011;39692;53.114;7.060;2022-08-19T10:58:24;4.68;;;3.30;;
53781;SDS011;39692;53.114;7.060;2022-08-19T11:00:52;4.22;;;3.50;;
53781;SDS011;39692;53.114;7.060;2022-08-19T11:03:22;3.33;;;2.65;;
53781;SDS011;39692;53.114;7.060;2022-08-19T11:06:01;3.40;;;3.10;;
53781;SDS011;39692;53.114;7.060;2022-08-19T11:08:28;5.75;;;3.08;;
53781;SDS011;39692;53.114;7.060;2022-08-19T11:10:57;5.03;;;3.50;;
53781;SDS011;39692;53.114;7.060;2022-08-19T11:13:29;6.45;;;3.90;;
53781;SDS011;39692;53.114;7.060;2022-08-19T11:16:07;4.60;;;3.65;;
53781;SDS011;39692;53.114;7.060;2022-08-19T11:18:39;4.82;;;3.22;;
53781;SDS011;39692;53.114;7.060;2022-08-19T11:21:29;4.93;;;3.42;;
53781;SDS011;39692;53.114;7.060;2022-08-19T11:23:57;7.53;;;3.50;;
53781;SDS011;39692;53.114;7.060;2022-08-19T11:26:25;5.45;;;3.58;;
53781;SDS011;39692;53.114;7.060;2022-08-19T11:28:52;4.97;;;4.47;;
53781;SDS011;39692;53.114;7.060;2022-08-19T11:31:20;4.57;;;3.72;;
53781;SDS011;39692;53.114;7.060;2022-08-19T11:33:49;4.63;;;3.53;;
53781;SDS011;39692;53.114;7.060;2022-08-19T11:36:21;4.15;;;3.40;;
53781;SDS011;39692;53.114;7.060;2022-08-19T11:38:48;4.57;;;4.00;;
53781;SDS011;39692;53.114;7.060;2022-08-19T11:41:14;5.00;;;3.78;;
53781;SDS011;39692;53.114;7.060;2022-08-19T11:43:41;4.35;;;3.80;;
53781;SDS011;39692;53.114;7.060;2022-08-19T11:46:09;4.03;;;3.50;;
53781;SDS011;39692;53.114;7.060;2022-08-19T11:48:36;6.60;;;5.00;;
53781;SDS011;39692;53.114;7.060;2022-08-19T11:51:04;6.68;;;5.13;;
53781;SDS011;39692;53.114;7.060;2022-08-19T11:53:32;5.22;;;4.72;;
53781;SDS011;39692;53.114;7.060;2022-08-19T11:55:59;4.88;;;4.18;;
53781;SDS011;39692;53.114;7.060;2022-08-19T11:58:24;5.43;;;4.05;;
53781;SDS011;39692;53.114;7.060;2022-08-19T12:00:50;6.80;;;5.95;;
53781;SDS011;39692;53.114;7.060;2022-08-19T12:03:17;5.97;;;5.38;;
53781;SDS011;39692;53.114;7.060;2022-08-19T12:05:44;5.15;;;4.63;;
53781;SDS011;39692;53.114;7.060;2022-08-19T12:08:10;5.47;;;4.97;;
53781;SDS011;39692;53.114;7.060;2022-08-19T12:10:38;5.88;;;4.72;;
53781;SDS011;39692;53.114;7.060;2022-08-19T12:13:06;6.28;;;5.25;;
53781;SDS011;39692;53.114;7.060;2022-08-19T12:15:35;5.22;;;4.20;;
53781;SDS011;39692;53.114;7.060;2022-08-19T12:18:02;6.10;;;5.07;;
53781;SDS011;39692;53.114;7.060;2022-08-19T12:20:28;7.22;;;5.10;;
53781;SDS011;39692;53.114;7.060;2022-08-19T12:22:54;5.93;;;4.88;;
53781;SDS011;39692;53.114;7.060;2022-08-19T12:25:20;5.63;;;4.35;;
53781;SDS011;39692;53.114;7.060;2022-08-19T12:27:46;5.13;;;4.38;;
53781;SDS011;39692;53.114;7.060;2022-08-19T12:30:12;6.30;;;4.82;;
53781;SDS011;39692;53.114;7.060;2022-08-19T12:32:38;5.13;;;4.63;;
53781;SDS011;39692;53.114;7.060;2022-08-19T12:35:05;5.53;;;4.63;;
53781;SDS011;39692;53.114;7.060;2022-08-19T12:37:31;5.85;;;4.72;;
53781;SDS011;39692;53.114;7.060;2022-08-19T12:39:57;5.13;;;4.63;;
53781;SDS011;39692;53.114;7.060;2022-08-19T12:42:23;6.88;;;5.30;;
53781;SDS011;39692;53.114;7.060;2022-08-19T12:44:49;5.95;;;5.22;;
53781;SDS011;39692;53.114;7.060;2022-08-19T12:47:17;5.70;;;4.90;;
53781;SDS011;39692;53.114;7.060;2022-08-19T12:49:43;6.60;;;6.00;;
53781;SDS011;39692;53.114;7.060;2022-08-19T12:52:09;6.72;;;5.70;;
53781;SDS011;39692;53.114;7.060;2022-08-19T12:54:36;7.53;;;5.70;;
53781;SDS011;39692;53.114;7.060;2022-08-19T12:57:06;6.38;;;5.78;;
53781;SDS011;39692;53.114;7.060;2022-08-19T12:59:33;8.25;;;6.20;;
53781;SDS011;39692;53.114;7.060;2022-08-19T13:02:02;9.45;;;5.95;;
53781;SDS011;39692;53.114;7.060;2022-08-19T13:04:32;7.60;;;5.90;;
53781;SDS011;39692;53.114;7.060;2022-08-19T13:07:05;6.90;;;5.57;;
53781;SDS011;39692;53.114;7.060;2022-08-19T13:09:33;7.43;;;6.72;;
53781;SDS011;39692;53.114;7.060;2022-08-19T13:11:58;8.55;;;6.32;;
53781;SDS011;39692;53.114;7.060;2022-08-19T13:14:27;9.15;;;6.93;;
53781;SDS011;39692;53.114;7.060;2022-08-19T13:16:53;8.20;;;6.82;;
53781;SDS011;39692;53.114;7.060;2022-08-19T13:19:19;10.20;;;7.18;;
53781;SDS011;39692;53.114;7.060;2022-08-19T13:21:49;8.75;;;7.47;;
53781;SDS011;39692;53.114;7.060;2022-08-19T13:24:15;7.38;;;6.68;;
53781;SDS011;39692;53.114;7.060;2022-08-19T13:26:40;7.85;;;7.00;;
53781;SDS011;39692;53.114;7.060;2022-08-19T13:29:06;8.95;;;6.93;;
53781;SDS011;39692;53.114;7.060;2022-08-19T13:31:50;9.45;;;7.47;;
53781;SDS011;39692;53.114;7.060;2022-08-19T13:34:34;10.63;;;9.55;;
53781;SDS011;39692;53.114;7.060;2022-08-19T13:37:03;9.38;;;8.45;;
53781;SDS011;39692;53.114;7.060;2022-08-19T13:39:30;9.88;;;8.73;;
53781;SDS011;39692;53.114;7.060;2022-08-19T13:41:57;9.70;;;7.93;;
53781;SDS011;39692;53.114;7.060;2022-08-19T13:44:26;9.07;;;8.25;;
53781;SDS011;39692;53.114;7.060;2022-08-19T13:46:54;9.35;;;8.35;;
53781;SDS011;39692;53.114;7.060;2022-08-19T13:49:31;10.52;;;8.57;;
53781;SDS011;39692;53.114;7.060;2022-08-19T13:51:58;8.98;;;8.07;;
53781;SDS011;39692;53.114;7.060;2022-08-19T13:54:24;10.88;;;9.88;;
53781;SDS011;39692;53.114;7.060;2022-08-19T13:56:50;11.50;;;10.32;;
53781;SDS011;39692;53.114;7.060;2022-08-19T13:59:15;11.60;;;8.95;;
53781;SDS011;39692;53.114;7.060;2022-08-19T14:01:42;9.60;;;8.73;;
53781;SDS011;39692;53.114;7.060;2022-08-19T14:04:08;10.13;;;9.20;;
53781;SDS011;39692;53.114;7.060;2022-08-19T14:06:34;10.38;;;9.18;;
53781;SDS011;39692;53.114;7.060;2022-08-19T14:09:00;11.20;;;8.77;;
53781;SDS011;39692;53.114;7.060;2022-08-19T14:11:27;10.18;;;9.13;;
53781;SDS011;39692;53.114;7.060;2022-08-19T14:13:53;9.40;;;8.60;;
53781;SDS011;39692;53.114;7.060;2022-08-19T14:16:19;9.73;;;8.82;;
53781;SDS011;39692;53.114;7.060;2022-08-19T14:18:46;9.65;;;8.65;;
53781;SDS011;39692;53.114;7.060;2022-08-19T14:21:16;8.85;;;7.95;;
53781;SDS011;39692;53.114;7.060;2022-08-19T14:23:45;12.93;;;9.10;;
53781;SDS011;39692;53.114;7.060;2022-08-19T14:26:13;9.85;;;8.95;;
53781;SDS011;39692;53.114;7.060;2022-08-19T14:28:41;10.80;;;9.55;;
53781;SDS011;39692;53.114;7.060;2022-08-19T14:31:09;10.30;;;9.30;;
53781;SDS011;39692;53.114;7.060;2022-08-19T14:33:41;9.40;;;8.60;;
53781;SDS011;39692;53.114;7.060;2022-08-19T14:36:07;9.45;;;8.65;;
53781;SDS011;39692;53.114;7.060;2022-08-19T14:38:33;8.82;;;7.43;;
53781;SDS011;39692;53.114;7.060;2022-08-19T14:41:13;10.38;;;8.63;;
53781;SDS011;39692;53.114;7.060;2022-08-19T14:43:42;8.35;;;7.18;;
53781;SDS011;39692;53.114;7.060;2022-08-19T14:46:11;12.63;;;10.68;;
53781;SDS011;39692;53.114;7.060;2022-08-19T14:48:41;16.40;;;13.13;;
53781;SDS011;39692;53.114;7.060;2022-08-19T14:51:07;16.05;;;12.23;;
53781;SDS011;39692;53.114;7.060;2022-08-19T14:53:33;17.02;;;13.73;;
53781;SDS011;39692;53.114;7.060;2022-08-19T14:56:00;15.63;;;13.68;;
53781;SDS011;39692;53.114;7.060;2022-08-19T14:58:26;14.73;;;13.23;;
53781;SDS011;39692;53.114;7.060;2022-08-19T15:00:53;16.42;;;13.07;;
53781;SDS011;39692;53.114;7.060;2022-08-19T15:03:18;15.57;;;13.98;;